sensor_id;sensor_type;location;lat;lon;timestamp;P1;durP1;ratioP1;P2;durP2;ratioP2
27758;SDS011;15148;48.972;12.794;2023-06-26T00:01:34;6.97;;;6.28;;
27758;SDS011;15148;48.972;12.794;2023-06-26T00:06:39;8.90;;;6.95;;
27758;SDS011;15148;48.972;12.794;2023-06-26T00:11:41;7.35;;;6.32;;
27758;SDS011;15148;48.972;12.794;2023-06-26T00:16:45;6.57;;;5.97;;
27758;SDS011;15148;48.972;12.794;2023-06-26T00:21:51;6.78;;;6.13;;
27758;SDS011;15148;48.972;12.794;2023-06-26T00:26:53;7.15;;;6.55;;
27758;SDS011;15148;48.972;12.794;2023-06-26T00:31:56;7.28;;;6.57;;
27758;SDS011;15148;48.972;12.794;2023-06-26T00:36:58;6.82;;;6.15;;
27758;SDS011;15148;48.972;12.794;2023-06-26T00:42:04;7.70;;;6.95;;
27758;SDS011;15148;48.972;12.794;2023-06-26T00:47:07;7.00;;;6.32;;
27758;SDS011;15148;48.972;12.794;2023-06-26T00:52:13;7.20;;;6.50;;
27758;SDS011;15148;48.972;12.794;2023-06-26T00:57:19;7.25;;;6.30;;
27758;SDS011;15148;48.972;12.794;2023-06-26T01:02:24;7.20;;;6.50;;
27758;SDS011;15148;48.972;12.794;2023-06-26T01:07:27;6.72;;;6.13;;
27758;SDS011;15148;48.972;12.794;2023-06-26T01:12:30;8.52;;;6.68;;
27758;SDS011;15148;48.972;12.794;2023-06-26T01:17:36;7.30;;;6.60;;
27758;SDS011;15148;48.972;12.794;2023-06-26T01:28:04;7.90;;;6.72;;
27758;SDS011;15148;48.972;12.794;2023-06-26T01:33:07;7.90;;;6.75;;
27758;SDS011;15148;48.972;12.794;2023-06-26T01:38:13;8.85;;;7.15;;
27758;SDS011;15148;48.972;12.794;2023-06-26T01:48:27;9.15;;;7.32;;
27758;SDS011;15148;48.972;12.794;2023-06-26T01:53:36;8.57;;;7.70;;
27758;SDS011;15148;48.972;12.794;2023-06-26T01:58:43;8.13;;;7.33;;
27758;SDS011;15148;48.972;12.794;2023-06-26T02:03:49;8.65;;;7.22;;
27758;SDS011;15148;48.972;12.794;2023-06-26T02:08:52;8.27;;;7.47;;
27758;SDS011;15148;48.972;12.794;2023-06-26T02:13:57;8.10;;;7.30;;
27758;SDS011;15148;48.972;12.794;2023-06-26T02:19:02;10.45;;;7.75;;
27758;SDS011;15148;48.972;12.794;2023-06-26T02:24:04;7.72;;;7.00;;
27758;SDS011;15148;48.972;12.794;2023-06-26T02:29:09;8.70;;;7.80;;
27758;SDS011;15148;48.972;12.794;2023-06-26T02:34:13;7.90;;;7.10;;
27758;SDS011;15148;48.972;12.794;2023-06-26T02:39:19;8.50;;;7.70;;
27758;SDS011;15148;48.972;12.794;2023-06-26T02:44:22;7.75;;;6.93;;
27758;SDS011;15148;48.972;12.794;2023-06-26T02:49:24;7.80;;;7.05;;
27758;SDS011;15148;48.972;12.794;2023-06-26T02:54:28;9.05;;;8.07;;
27758;SDS011;15148;48.972;12.794;2023-06-26T02:59:37;7.95;;;7.18;;
27758;SDS011;15148;48.972;12.794;2023-06-26T03:04:42;8.27;;;7.47;;
27758;SDS011;15148;48.972;12.794;2023-06-26T03:09:47;7.78;;;7.07;;
27758;SDS011;15148;48.972;12.794;2023-06-26T03:14:49;7.97;;;7.28;;
27758;SDS011;15148;48.972;12.794;2023-06-26T03:19:53;8.32;;;7.53;;
27758;SDS011;15148;48.972;12.794;2023-06-26T03:24:58;8.45;;;7.47;;
27758;SDS011;15148;48.972;12.794;2023-06-26T03:30:04;12.85;;;7.85;;
27758;SDS011;15148;48.972;12.794;2023-06-26T03:35:09;10.75;;;8.25;;
27758;SDS011;15148;48.972;12.794;2023-06-26T03:40:13;8.80;;;7.88;;
27758;SDS011;15148;48.972;12.794;2023-06-26T03:45:18;8.90;;;8.05;;
27758;SDS011;15148;48.972;12.794;2023-06-26T03:50:23;9.77;;;7.80;;
27758;SDS011;15148;48.972;12.794;2023-06-26T03:55:27;9.60;;;7.97;;
27758;SDS011;15148;48.972;12.794;2023-06-26T04:00:29;8.55;;;7.68;;
27758;SDS011;15148;48.972;12.794;2023-06-26T04:05:32;8.82;;;7.93;;
27758;SDS011;15148;48.972;12.794;2023-06-26T04:10:35;8.48;;;7.68;;
27758;SDS011;15148;48.972;12.794;2023-06-26T04:15:40;9.18;;;8.35;;
27758;SDS011;15148;48.972;12.794;2023-06-26T04:21:03;8.57;;;7.78;;
27758;SDS011;15148;48.972;12.794;2023-06-26T04:26:07;8.65;;;7.85;;
27758;SDS011;15148;48.972;12.794;2023-06-26T04:31:12;8.63;;;7.72;;
27758;SDS011;15148;48.972;12.794;2023-06-26T04:36:15;7.88;;;7.13;;
27758;SDS011;15148;48.972;12.794;2023-06-26T04:41:20;8.85;;;7.95;;
27758;SDS011;15148;48.972;12.794;2023-06-26T04:46:25;9.35;;;8.32;;
27758;SDS011;15148;48.972;12.794;2023-06-26T04:51:29;9.30;;;8.27;;
27758;SDS011;15148;48.972;12.794;2023-06-26T04:56:31;9.18;;;8.05;;
27758;SDS011;15148;48.972;12.794;2023-06-26T05:01:33;10.00;;;9.00;;
27758;SDS011;15148;48.972;12.794;2023-06-26T05:06:35;9.57;;;8.57;;
27758;SDS011;15148;48.972;12.794;2023-06-26T05:11:37;9.95;;;8.90;;
27758;SDS011;15148;48.972;12.794;2023-06-26T05:16:39;9.15;;;8.23;;
27758;SDS011;15148;48.972;12.794;2023-06-26T05:21:41;12.52;;;11.20;;
27758;SDS011;15148;48.972;12.794;2023-06-26T05:26:43;14.45;;;12.98;;
27758;SDS011;15148;48.972;12.794;2023-06-26T05:31:45;9.10;;;8.30;;
27758;SDS011;15148;48.972;12.794;2023-06-26T05:36:50;9.75;;;8.68;;
27758;SDS011;15148;48.972;12.794;2023-06-26T05:41:53;8.07;;;7.03;;
27758;SDS011;15148;48.972;12.794;2023-06-26T05:46:55;8.27;;;7.35;;
27758;SDS011;15148;48.972;12.794;2023-06-26T05:51:57;8.27;;;7.47;;
27758;SDS011;15148;48.972;12.794;2023-06-26T05:56:59;9.57;;;8.43;;
27758;SDS011;15148;48.972;12.794;2023-06-26T06:02:01;7.72;;;7.13;;
27758;SDS011;15148;48.972;12.794;2023-06-26T06:07:04;7.80;;;7.10;;
27758;SDS011;15148;48.972;12.794;2023-06-26T06:12:07;8.25;;;7.50;;
27758;SDS011;15148;48.972;12.794;2023-06-26T06:17:09;8.30;;;7.60;;
27758;SDS011;15148;48.972;12.794;2023-06-26T06:22:11;7.95;;;7.20;;
27758;SDS011;15148;48.972;12.794;2023-06-26T06:27:13;8.07;;;7.38;;
27758;SDS011;15148;48.972;12.794;2023-06-26T06:32:15;8.23;;;7.50;;
27758;SDS011;15148;48.972;12.794;2023-06-26T06:37:17;8.07;;;7.38;;
27758;SDS011;15148;48.972;12.794;2023-06-26T06:42:19;9.15;;;8.05;;
27758;SDS011;15148;48.972;12.794;2023-06-26T06:47:21;8.10;;;7.47;;
27758;SDS011;15148;48.972;12.794;2023-06-26T06:52:23;8.43;;;7.65;;
27758;SDS011;15148;48.972;12.794;2023-06-26T06:57:25;8.73;;;7.93;;
27758;SDS011;15148;48.972;12.794;2023-06-26T07:02:27;8.55;;;7.75;;
27758;SDS011;15148;48.972;12.794;2023-06-26T07:07:30;8.30;;;7.60;;
27758;SDS011;15148;48.972;12.794;2023-06-26T07:12:32;8.15;;;7.43;;
27758;SDS011;15148;48.972;12.794;2023-06-26T07:17:35;8.40;;;7.43;;
27758;SDS011;15148;48.972;12.794;2023-06-26T07:22:37;8.40;;;7.65;;
27758;SDS011;15148;48.972;12.794;2023-06-26T07:27:39;8.40;;;7.32;;
27758;SDS011;15148;48.972;12.794;2023-06-26T07:32:44;8.38;;;7.57;;
27758;SDS011;15148;48.972;12.794;2023-06-26T07:37:46;8.23;;;7.03;;
27758;SDS011;15148;48.972;12.794;2023-06-26T07:42:48;8.90;;;8.10;;
27758;SDS011;15148;48.972;12.794;2023-06-26T07:47:51;8.38;;;7.50;;
27758;SDS011;15148;48.972;12.794;2023-06-26T07:52:53;8.77;;;7.97;;
27758;SDS011;15148;48.972;12.794;2023-06-26T07:57:55;8.45;;;7.65;;
27758;SDS011;15148;48.972;12.794;2023-06-26T08:02:57;8.82;;;8.02;;
27758;SDS011;15148;48.972;12.794;2023-06-26T08:07:59;8.40;;;7.60;;
27758;SDS011;15148;48.972;12.794;2023-06-26T08:13:03;7.85;;;7.15;;
27758;SDS011;15148;48.972;12.794;2023-06-26T08:18:05;8.48;;;7.68;;
27758;SDS011;15148;48.972;12.794;2023-06-26T08:23:07;7.75;;;7.05;;
27758;SDS011;15148;48.972;12.794;2023-06-26T08:28:09;7.97;;;7.28;;
27758;SDS011;15148;48.972;12.794;2023-06-26T08:33:11;7.95;;;7.15;;
27758;SDS011;15148;48.972;12.794;2023-06-26T08:38:13;8.80;;;7.90;;
27758;SDS011;15148;48.972;12.794;2023-06-26T08:48:23;8.43;;;7.63;;
27758;SDS011;15148;48.972;12.794;2023-06-26T08:59:06;7.28;;;6.60;;
27758;SDS011;15148;48.972;12.794;2023-06-26T09:04:08;9.15;;;8.00;;
27758;SDS011;15148;48.972;12.794;2023-06-26T09:09:10;8.77;;;7.97;;
27758;SDS011;15148;48.972;12.794;2023-06-26T09:14:13;7.20;;;6.60;;
27758;SDS011;15148;48.972;12.794;2023-06-26T09:19:16;8.73;;;7.90;;
27758;SDS011;15148;48.972;12.794;2023-06-26T09:24:18;8.63;;;7.57;;
27758;SDS011;15148;48.972;12.794;2023-06-26T09:29:20;8.52;;;7.72;;
27758;SDS011;15148;48.972;12.794;2023-06-26T09:34:22;8.10;;;7.40;;
27758;SDS011;15148;48.972;12.794;2023-06-26T09:39:23;8.60;;;7.47;;
27758;SDS011;15148;48.972;12.794;2023-06-26T09:44:25;10.45;;;7.75;;
27758;SDS011;15148;48.972;12.794;2023-06-26T09:49:27;9.30;;;7.43;;
27758;SDS011;15148;48.972;12.794;2023-06-26T09:54:29;8.02;;;7.32;;
27758;SDS011;15148;48.972;12.794;2023-06-26T09:59:34;8.07;;;7.28;;
27758;SDS011;15148;48.972;12.794;2023-06-26T10:04:37;8.02;;;7.32;;
27758;SDS011;15148;48.972;12.794;2023-06-26T10:09:42;8.52;;;7.63;;
27758;SDS011;15148;48.972;12.794;2023-06-26T10:19:49;8.18;;;7.07;;
27758;SDS011;15148;48.972;12.794;2023-06-26T10:24:54;7.57;;;6.88;;
27758;SDS011;15148;48.972;12.794;2023-06-26T10:30:00;7.93;;;7.13;;
27758;SDS011;15148;48.972;12.794;2023-06-26T10:35:06;7.55;;;6.85;;
27758;SDS011;15148;48.972;12.794;2023-06-26T10:40:09;8.10;;;7.40;;
27758;SDS011;15148;48.972;12.794;2023-06-26T10:45:16;10.60;;;9.10;;
27758;SDS011;15148;48.972;12.794;2023-06-26T10:50:26;7.90;;;7.20;;
27758;SDS011;15148;48.972;12.794;2023-06-26T10:55:30;7.57;;;6.97;;
27758;SDS011;15148;48.972;12.794;2023-06-26T11:00:31;8.27;;;7.50;;
27758;SDS011;15148;48.972;12.794;2023-06-26T11:05:33;7.70;;;7.00;;
27758;SDS011;15148;48.972;12.794;2023-06-26T11:10:48;7.72;;;7.03;;
27758;SDS011;15148;48.972;12.794;2023-06-26T11:15:55;8.15;;;7.35;;
27758;SDS011;15148;48.972;12.794;2023-06-26T11:21:05;8.98;;;8.18;;
27758;SDS011;15148;48.972;12.794;2023-06-26T11:26:17;8.63;;;7.82;;
27758;SDS011;15148;48.972;12.794;2023-06-26T11:31:32;7.95;;;7.15;;
27758;SDS011;15148;48.972;12.794;2023-06-26T11:36:36;8.77;;;7.72;;
27758;SDS011;15148;48.972;12.794;2023-06-26T11:41:39;8.73;;;7.93;;
27758;SDS011;15148;48.972;12.794;2023-06-26T11:46:41;7.82;;;7.13;;
27758;SDS011;15148;48.972;12.794;2023-06-26T11:51:43;8.48;;;7.68;;
27758;SDS011;15148;48.972;12.794;2023-06-26T11:56:58;8.60;;;7.72;;
27758;SDS011;15148;48.972;12.794;2023-06-26T12:02:01;8.63;;;7.72;;
27758;SDS011;15148;48.972;12.794;2023-06-26T12:07:07;8.50;;;7.38;;
27758;SDS011;15148;48.972;12.794;2023-06-26T12:12:11;8.85;;;7.95;;
27758;SDS011;15148;48.972;12.794;2023-06-26T12:17:16;8.50;;;7.80;;
27758;SDS011;15148;48.972;12.794;2023-06-26T12:22:18;9.35;;;8.45;;
27758;SDS011;15148;48.972;12.794;2023-06-26T12:27:20;8.25;;;7.45;;
27758;SDS011;15148;48.972;12.794;2023-06-26T12:32:25;8.85;;;8.05;;
27758;SDS011;15148;48.972;12.794;2023-06-26T12:37:28;8.00;;;7.20;;
27758;SDS011;15148;48.972;12.794;2023-06-26T12:42:32;9.55;;;8.65;;
27758;SDS011;15148;48.972;12.794;2023-06-26T12:47:34;8.48;;;7.68;;
27758;SDS011;15148;48.972;12.794;2023-06-26T12:52:39;8.68;;;7.88;;
27758;SDS011;15148;48.972;12.794;2023-06-26T12:57:41;8.35;;;7.65;;
27758;SDS011;15148;48.972;12.794;2023-06-26T13:02:43;8.38;;;7.55;;
27758;SDS011;15148;48.972;12.794;2023-06-26T13:07:46;10.98;;;7.70;;
27758;SDS011;15148;48.972;12.794;2023-06-26T13:12:47;8.18;;;7.47;;
27758;SDS011;15148;48.972;12.794;2023-06-26T13:17:49;8.52;;;7.72;;
27758;SDS011;15148;48.972;12.794;2023-06-26T13:22:51;8.27;;;7.57;;
27758;SDS011;15148;48.972;12.794;2023-06-26T13:27:54;8.93;;;8.13;;
27758;SDS011;15148;48.972;12.794;2023-06-26T13:32:56;8.25;;;7.45;;
27758;SDS011;15148;48.972;12.794;2023-06-26T13:37:58;8.00;;;7.28;;
27758;SDS011;15148;48.972;12.794;2023-06-26T13:43:00;8.15;;;7.35;;
27758;SDS011;15148;48.972;12.794;2023-06-26T13:48:03;7.63;;;6.88;;
27758;SDS011;15148;48.972;12.794;2023-06-26T13:53:05;7.85;;;7.05;;
27758;SDS011;15148;48.972;12.794;2023-06-26T13:58:07;7.53;;;6.63;;
27758;SDS011;15148;48.972;12.794;2023-06-26T14:03:09;6.70;;;6.18;;
27758;SDS011;15148;48.972;12.794;2023-06-26T14:08:12;6.78;;;6.18;;
27758;SDS011;15148;48.972;12.794;2023-06-26T14:13:14;8.18;;;7.13;;
27758;SDS011;15148;48.972;12.794;2023-06-26T14:18:17;7.97;;;7.18;;
27758;SDS011;15148;48.972;12.794;2023-06-26T14:23:19;8.43;;;7.63;;
27758;SDS011;15148;48.972;12.794;2023-06-26T14:28:20;8.35;;;7.63;;
27758;SDS011;15148;48.972;12.794;2023-06-26T14:33:22;9.23;;;8.40;;
27758;SDS011;15148;48.972;12.794;2023-06-26T14:38:24;8.65;;;7.85;;
27758;SDS011;15148;48.972;12.794;2023-06-26T14:43:26;8.73;;;7.93;;
27758;SDS011;15148;48.972;12.794;2023-06-26T14:48:28;8.25;;;7.55;;
27758;SDS011;15148;48.972;12.794;2023-06-26T14:53:31;10.10;;;8.30;;
27758;SDS011;15148;48.972;12.794;2023-06-26T14:58:33;12.85;;;11.45;;
27758;SDS011;15148;48.972;12.794;2023-06-26T15:03:35;8.75;;;7.90;;
27758;SDS011;15148;48.972;12.794;2023-06-26T15:08:37;7.95;;;7.10;;
27758;SDS011;15148;48.972;12.794;2023-06-26T15:13:39;7.93;;;7.13;;
27758;SDS011;15148;48.972;12.794;2023-06-26T15:18:41;8.10;;;7.00;;
27758;SDS011;15148;48.972;12.794;2023-06-26T15:23:44;11.68;;;7.07;;
27758;SDS011;15148;48.972;12.794;2023-06-26T15:28:47;11.98;;;8.73;;
27758;SDS011;15148;48.972;12.794;2023-06-26T15:33:49;9.07;;;6.95;;
27758;SDS011;15148;48.972;12.794;2023-06-26T15:38:51;10.60;;;6.97;;
27758;SDS011;15148;48.972;12.794;2023-06-26T15:43:53;7.95;;;6.75;;
27758;SDS011;15148;48.972;12.794;2023-06-26T15:48:56;7.30;;;6.57;;
27758;SDS011;15148;48.972;12.794;2023-06-26T15:53:58;8.68;;;6.40;;
27758;SDS011;15148;48.972;12.794;2023-06-26T15:59:00;7.53;;;6.80;;
27758;SDS011;15148;48.972;12.794;2023-06-26T16:04:02;7.25;;;6.55;;
27758;SDS011;15148;48.972;12.794;2023-06-26T16:09:04;9.40;;;6.18;;
27758;SDS011;15148;48.972;12.794;2023-06-26T16:14:05;7.10;;;6.40;;
27758;SDS011;15148;48.972;12.794;2023-06-26T16:19:07;6.20;;;5.60;;
27758;SDS011;15148;48.972;12.794;2023-06-26T16:24:09;6.57;;;5.57;;
27758;SDS011;15148;48.972;12.794;2023-06-26T16:29:11;7.07;;;6.38;;
27758;SDS011;15148;48.972;12.794;2023-06-26T16:34:13;8.02;;;6.78;;
27758;SDS011;15148;48.972;12.794;2023-06-26T16:39:16;6.03;;;5.43;;
27758;SDS011;15148;48.972;12.794;2023-06-26T16:44:21;7.88;;;6.40;;
27758;SDS011;15148;48.972;12.794;2023-06-26T16:49:23;6.00;;;5.40;;
27758;SDS011;15148;48.972;12.794;2023-06-26T16:54:28;7.82;;;6.97;;
27758;SDS011;15148;48.972;12.794;2023-06-26T16:59:29;8.48;;;7.15;;
27758;SDS011;15148;48.972;12.794;2023-06-26T17:04:31;9.43;;;6.43;;
27758;SDS011;15148;48.972;12.794;2023-06-26T17:09:34;7.80;;;6.40;;
27758;SDS011;15148;48.972;12.794;2023-06-26T17:14:36;7.20;;;5.93;;
27758;SDS011;15148;48.972;12.794;2023-06-26T17:19:38;8.00;;;6.68;;
27758;SDS011;15148;48.972;12.794;2023-06-26T17:24:40;6.22;;;5.63;;
27758;SDS011;15148;48.972;12.794;2023-06-26T17:29:42;7.80;;;6.05;;
27758;SDS011;15148;48.972;12.794;2023-06-26T17:34:44;7.18;;;6.03;;
27758;SDS011;15148;48.972;12.794;2023-06-26T17:39:46;8.27;;;7.32;;
27758;SDS011;15148;48.972;12.794;2023-06-26T17:44:48;7.75;;;7.05;;
27758;SDS011;15148;48.972;12.794;2023-06-26T17:49:51;7.47;;;6.78;;
27758;SDS011;15148;48.972;12.794;2023-06-26T17:54:53;6.88;;;6.03;;
27758;SDS011;15148;48.972;12.794;2023-06-26T17:59:55;7.82;;;7.03;;
27758;SDS011;15148;48.972;12.794;2023-06-26T18:04:57;7.82;;;7.03;;
27758;SDS011;15148;48.972;12.794;2023-06-26T18:09:59;7.88;;;6.43;;
27758;SDS011;15148;48.972;12.794;2023-06-26T18:15:01;7.55;;;6.85;;
27758;SDS011;15148;48.972;12.794;2023-06-26T18:20:04;8.15;;;6.72;;
27758;SDS011;15148;48.972;12.794;2023-06-26T18:25:07;8.00;;;7.20;;
27758;SDS011;15148;48.972;12.794;2023-06-26T18:30:09;7.53;;;6.82;;
27758;SDS011;15148;48.972;12.794;2023-06-26T18:35:12;7.85;;;7.07;;
27758;SDS011;15148;48.972;12.794;2023-06-26T18:40:14;9.23;;;8.30;;
27758;SDS011;15148;48.972;12.794;2023-06-26T18:45:18;7.88;;;7.03;;
27758;SDS011;15148;48.972;12.794;2023-06-26T18:50:20;7.65;;;6.95;;
27758;SDS011;15148;48.972;12.794;2023-06-26T18:55:24;8.75;;;7.00;;
27758;SDS011;15148;48.972;12.794;2023-06-26T19:00:27;9.27;;;8.25;;
27758;SDS011;15148;48.972;12.794;2023-06-26T19:05:29;8.02;;;7.32;;
27758;SDS011;15148;48.972;12.794;2023-06-26T19:10:31;8.98;;;8.07;;
27758;SDS011;15148;48.972;12.794;2023-06-26T19:15:33;9.68;;;7.70;;
27758;SDS011;15148;48.972;12.794;2023-06-26T19:20:35;8.73;;;7.88;;
27758;SDS011;15148;48.972;12.794;2023-06-26T19:25:37;11.63;;;8.55;;
27758;SDS011;15148;48.972;12.794;2023-06-26T19:30:40;11.30;;;9.23;;
27758;SDS011;15148;48.972;12.794;2023-06-26T19:35:42;9.30;;;8.40;;
27758;SDS011;15148;48.972;12.794;2023-06-26T19:40:44;12.60;;;8.60;;
27758;SDS011;15148;48.972;12.794;2023-06-26T19:45:46;8.98;;;8.02;;
27758;SDS011;15148;48.972;12.794;2023-06-26T19:50:48;13.68;;;10.40;;
27758;SDS011;15148;48.972;12.794;2023-06-26T19:55:50;10.75;;;9.52;;
27758;SDS011;15148;48.972;12.794;2023-06-26T20:00:52;10.15;;;9.15;;
27758;SDS011;15148;48.972;12.794;2023-06-26T20:05:54;10.43;;;9.32;;
27758;SDS011;15148;48.972;12.794;2023-06-26T20:10:56;9.93;;;9.02;;
27758;SDS011;15148;48.972;12.794;2023-06-26T20:15:57;10.82;;;8.95;;
27758;SDS011;15148;48.972;12.794;2023-06-26T20:21:00;11.35;;;9.40;;
27758;SDS011;15148;48.972;12.794;2023-06-26T20:26:02;9.68;;;8.80;;
27758;SDS011;15148;48.972;12.794;2023-06-26T20:31:04;10.70;;;9.35;;
27758;SDS011;15148;48.972;12.794;2023-06-26T20:36:06;9.75;;;8.68;;
27758;SDS011;15148;48.972;12.794;2023-06-26T20:41:08;12.23;;;9.27;;
27758;SDS011;15148;48.972;12.794;2023-06-26T20:46:10;13.18;;;9.35;;
27758;SDS011;15148;48.972;12.794;2023-06-26T20:51:15;9.73;;;8.82;;
27758;SDS011;15148;48.972;12.794;2023-06-26T21:01:25;9.95;;;8.65;;
27758;SDS011;15148;48.972;12.794;2023-06-26T21:06:28;11.43;;;9.85;;
27758;SDS011;15148;48.972;12.794;2023-06-26T21:11:30;10.77;;;9.15;;
27758;SDS011;15148;48.972;12.794;2023-06-26T21:16:32;10.25;;;9.15;;
27758;SDS011;15148;48.972;12.794;2023-06-26T21:21:36;10.88;;;9.52;;
27758;SDS011;15148;48.972;12.794;2023-06-26T21:26:39;12.70;;;9.32;;
27758;SDS011;15148;48.972;12.794;2023-06-26T21:31:42;10.23;;;8.98;;
27758;SDS011;15148;48.972;12.794;2023-06-26T21:36:44;11.43;;;8.98;;
27758;SDS011;15148;48.972;12.794;2023-06-26T21:41:48;9.80;;;8.35;;
27758;SDS011;15148;48.972;12.794;2023-06-26T21:46:50;11.27;;;9.18;;
27758;SDS011;15148;48.972;12.794;2023-06-26T21:51:53;14.00;;;9.23;;
27758;SDS011;15148;48.972;12.794;2023-06-26T21:56:55;9.43;;;8.43;;
27758;SDS011;15148;48.972;12.794;2023-06-26T22:01:57;11.82;;;9.10;;
27758;SDS011;15148;48.972;12.794;2023-06-26T22:06:59;9.82;;;8.82;;
27758;SDS011;15148;48.972;12.794;2023-06-26T22:12:01;10.40;;;8.98;;
27758;SDS011;15148;48.972;12.794;2023-06-26T22:17:05;10.05;;;9.02;;
27758;SDS011;15148;48.972;12.794;2023-06-26T22:22:09;11.05;;;9.75;;
27758;SDS011;15148;48.972;12.794;2023-06-26T22:27:13;9.95;;;8.95;;
27758;SDS011;15148;48.972;12.794;2023-06-26T22:32:17;10.90;;;9.27;;
27758;SDS011;15148;48.972;12.794;2023-06-26T22:37:19;10.55;;;9.35;;
27758;SDS011;15148;48.972;12.794;2023-06-26T22:42:21;11.15;;;9.82;;
27758;SDS011;15148;48.972;12.794;2023-06-26T22:47:23;10.68;;;9.65;;
27758;SDS011;15148;48.972;12.794;2023-06-26T22:52:26;10.18;;;9.13;;
27758;SDS011;15148;48.972;12.794;2023-06-26T22:57:30;11.07;;;9.95;;
27758;SDS011;15148;48.972;12.794;2023-06-26T23:02:35;11.90;;;9.75;;
27758;SDS011;15148;48.972;12.794;2023-06-26T23:07:38;10.38;;;8.85;;
27758;SDS011;15148;48.972;12.794;2023-06-26T23:12:40;12.38;;;9.05;;
27758;SDS011;15148;48.972;12.794;2023-06-26T23:17:44;12.10;;;9.30;;
27758;SDS011;15148;48.972;12.794;2023-06-26T23:22:49;11.45;;;9.63;;
27758;SDS011;15148;48.972;12.794;2023-06-26T23:27:52;11.15;;;9.30;;
27758;SDS011;15148;48.972;12.794;2023-06-26T23:33:02;9.77;;;8.77;;
27758;SDS011;15148;48.972;12.794;2023-06-26T23:38:07;15.70;;;8.95;;
27758;SDS011;15148;48.972;12.794;2023-06-26T23:43:12;8.98;;;7.63;;
27758;SDS011;15148;48.972;12.794;2023-06-26T23:48:15;9.68;;;8.68;;
27758;SDS011;15148;48.972;12.794;2023-06-26T23:53:19;8.30;;;7.50;;
27758;SDS011;15148;48.972;12.794;2023-06-26T23:58:21;9.50;;;7.72;;
